Montreal International (Mirabel) Airport

CYMX · Quebec, 加拿大

METAR的历史 CYMX · Montreal International (Mirabel) Airport

下面你可以看到过去几天的METARs。 选择年份以浏览从2007年开始的旧METAR。

2024年3月4日

时间 代码 天气 温度 能见度 天花板 METAR/SPECI
15:00
V
4 °C 30 mi 25.000 ft 060° 060° 6 kt METAR CYMX 042000Z 06006KT 020V080 30SM FEW010 BKN250 04/M01 A3027 RMK SC2CI4 SLP256
14:00
M
4 °C 30 mi 1.000 ft 060° 060° 7 kt METAR CYMX 041900Z 06007KT 030V090 30SM OVC010 04/M01 A3029 RMK SC8 SLP263
13:25
M
3 °C 25 mi 1.000 ft 070° 070° 7 kt METAR CYMX 041825Z 07007KT 25SM OVC010 03/M00 A3030 RMK SC8 SLP268
13:00
I
3 °C 20 mi 900 ft 060° 060° 6 kt METAR CYMX 041800Z 06006KT 020V090 20SM OVC009 03/M00 A3031 RMK NS8 SLP269
12:00
I
3 °C 20 mi 800 ft 050° 050° 5 kt METAR CYMX 041700Z 05005KT 020V080 20SM OVC008 03/M01 A3033 RMK NS8 SLP277
11:00
I
3 °C 15 mi 700 ft 040° 040° 7 kt METAR CYMX 041600Z 04007KT 010V080 15SM OVC007 03/00 A3034 RMK ST8 SLP281
10:31
I
2 °C 10 mi 600 ft 060° 060° 5 kt METAR CYMX 041531Z 06005KT 020V100 10SM OVC006 02/01 A3035 RMK ST8 SLP282
10:00
L
2 °C 3 mi 400 ft 050° 050° 5 kt METAR CYMX 041500Z 05005KT 3SM -DZ BR OVC004 02/01 A3035 RMK ST8 SLP284
09:49
L
2 °C 4 mi 400 ft 050° 050° 4 kt METAR CYMX 041449Z 05004KT 4SM -DZ BR OVC004 02/01 A3036 RMK ST8 SLP285
09:21
I
2 °C 6 mi 600 ft 050° 050° 4 kt METAR CYMX 041421Z 05004KT 020V090 6SM -DZ BR OVC006 02/01 A3036 RMK ST8 SLP285
09:00
M
2 °C 10 mi 1.100 ft 050° 050° 5 kt METAR CYMX 041400Z 05005KT 010V080 10SM -DZ OVC011 02/01 A3036 RMK ST8 CIG VRB 008-014 SLP286
08:00
M
2 °C 15 mi 1.400 ft 060° 060° 5 kt METAR CYMX 041300Z 06005KT 15SM OVC014 02/01 A3037 RMK SC8 SLP291
07:00
M
2 °C 10 mi 1.300 ft 060° 060° 5 kt METAR CYMX 041200Z 06005KT 10SM OVC013 02/01 A3036 RMK ST8 SLP287
06:00
M
1 °C 25 mi 1.200 ft 060° 060° 4 kt METAR CYMX 041100Z 06004KT 25SM BKN012 01/00 A3036 RMK SC7 SLP287
05:11
M
0 °C 25 mi 1.400 ft 050° 050° 3 kt METAR CYMX 041011Z 05003KT 25SM SCT006 OVC014 00/M01 A3036 RMK ST4SC4 SLP285
05:00
I
0 °C 25 mi 600 ft 030° 030° 3 kt METAR CYMX 041000Z 03003KT 25SM BKN006 OVC015 M00/M01 A3036 RMK SF5SC3 SLP286
04:00
L
-1 °C 10 mi 400 ft 360° 360° 4 kt METAR CYMX 040900Z 36004KT 340V080 10SM BKN004 OVC014 M01/M01 A3035 RMK ST6SC2 SLP283
03:07
L
-1 °C 10 mi 400 ft 050° 050° 3 kt METAR CYMX 040807Z 05003KT 10SM BKN004 M01/M02 A3034 RMK ST5 SLP280
03:04
V
-1 °C 25 mi - 040° 040° 4 kt METAR CYMX 040804Z 04004KT 25SM FEW004 FEW020 M01/M02 A3034 RMK ST1SC1 SLP280
02:00
V
-1 °C 25 mi - 040° 040° 3 kt METAR CYMX 040700Z 04003KT 25SM FEW020 M01/M01 A3033 RMK SC1 SLP277
01:00
V
-1 °C 25 mi - 040° 040° 3 kt METAR CYMX 040600Z 04003KT 25SM SKC M01/M02 A3033 RMK SLP276
00:00
V
-1 °C 25 mi - 020° 020° 2 kt METAR CYMX 040500Z 02002KT 25SM SKC M01/M02 A3032 RMK SLP272

2024年3月3日

时间 代码 天气 温度 能见度 天花板 METAR/SPECI
23:00
V
0 °C 25 mi - 360° 360° 0 kt METAR CYMX 040400Z 00000KT 25SM FEW050 M00/M01 A3031 RMK SC1 SLP270
22:00
V
0 °C 25 mi - 200° 200° 3 kt METAR CYMX 040300Z 20003KT 25SM SCT050 00/M01 A3031 RMK SC3 SLP269
21:00
V
1 °C 25 mi 5.000 ft 360° 360° 0 kt METAR CYMX 040200Z 00000KT 25SM BKN050 01/00 A3030 RMK SC5 SLP266
20:00
V
3 °C 25 mi 5.000 ft 250° 250° 2 kt METAR CYMX 040100Z 25002KT 25SM BKN050 03/01 A3028 RMK SC6 SLP261
19:00
V
4 °C 25 mi 5.000 ft 270° 270° 2 kt METAR CYMX 040000Z 27002KT 25SM BKN050 04/02 A3029 RMK SC7 SLP262
18:00
V
5 °C 25 mi 5.300 ft 270° 270° 3 kt METAR CYMX 032300Z 27003KT 25SM BKN053 05/02 A3027 RMK SC6 SLP256
17:00
V
7 °C 25 mi 5.500 ft Var Var 2 kt METAR CYMX 032200Z VRB02KT 25SM BKN055 07/01 A3025 RMK SC6 SLP251
16:00
V
8 °C 20 mi 5.500 ft 080° 080° 2 kt METAR CYMX 032100Z 08002KT 20SM BKN055 08/00 A3025 RMK SC6 SLP249
15:00
V
8 °C 20 mi 5.600 ft Var Var 2 kt METAR CYMX 032000Z VRB02KT 20SM BKN056 08/01 A3026 RMK SC6 SLP254
14:00
V
7 °C 20 mi 5.800 ft Var Var 2 kt METAR CYMX 031900Z VRB02KT 20SM BKN058 07/02 A3026 RMK SC7 SLP254
13:00
V
7 °C 20 mi 5.800 ft 360° 360° 0 kt METAR CYMX 031800Z 00000KT 20SM SCT035 BKN058 07/02 A3028 RMK SC3SC4 SLP259
12:00
V
6 °C 15 mi 3.300 ft 200° 200° 2 kt METAR CYMX 031700Z 20002KT 15SM FEW024 BKN033 OVC056 06/03 A3029 RMK SC1SC7SC1 SC TR SLP264
11:00
M
5 °C 15 mi 3.000 ft Var Var 2 kt METAR CYMX 031600Z VRB02KT 15SM FEW020 BKN030 OVC055 05/03 A3029 RMK SC1SC7SC1 SC TR SLP262
10:00
M
4 °C 10 mi 2.800 ft Var Var 2 kt METAR CYMX 031500Z VRB02KT 10SM FEW017 BKN028 OVC054 04/03 A3027 RMK SC1SC7SC1 SC TR SLP258
09:00
M
3 °C 6 mi 2.600 ft 360° 360° 0 kt METAR CYMX 031400Z 00000KT 6SM BR BKN026 OVC056 03/03 A3027 RMK SC7SC1 SLP255
08:40
M
3 °C 4 mi 2.500 ft Var Var 2 kt METAR CYMX 031340Z VRB02KT 4SM BR BKN025 OVC056 03/02 A3026 RMK SC7SC1 SLP253
08:00
I
2 °C 2 mi 2.500 ft 360° 360° 0 kt METAR CYMX 031300Z 00000KT 2SM R24/4000VP6000FT/D BR BKN025 BKN056 02/01 A3026 RMK FG3SC3SC1 VIS VRB 1 1/2-2 1/2 SLP253
07:36
I
2 °C 1½ mi 2.500 ft 070° 070° 2 kt METAR CYMX 031236Z 07002KT 1 1/2SM R24/2600V3000FT/N BR BKN025 BKN058 02/01 A3025 RMK FG3SC3SC1 VIS VRB 1-2 SLP249
07:17
I
2 °C 1¼ mi 2.600 ft Var Var 2 kt METAR CYMX 031217Z VRB02KT 1 1/4SM R24/4000VP6000FT/D BR BKN026 BKN060 02/01 A3025 RMK FG4SC2SC1 SLP249
07:00
I
2 °C 1¼ mi 2.600 ft 360° 360° 0 kt METAR CYMX 031200Z 00000KT 1 1/4SM BR BKN026 BKN060 02/01 A3024 RMK FG5SC1SC1 INTMT -RA SLP247
06:53
I
2 °C 1 mi 5.800 ft 360° 360° 0 kt METAR CYMX 031153Z 00000KT 1SM R24/3500VP6000FT/U -RA BR BKN058 02/01 A3024 RMK FG6SC1 VIS VRB 3/4-1 1/4 SLP248
06:00
L
1 °C ¾ mi 300 ft 040° 040° 3 kt METAR CYMX 031100Z 04003KT 340V100 3/4SM R24/2800V4000FT/D -RA BR VV003 01/01 A3022 RMK FG8 SLP240
05:24
L
1 °C ¾ mi 200 ft 350° 350° 3 kt METAR CYMX 031024Z 35003KT 3/4SM R24/5000VP6000FT/D -RA BR VV002 01/01 A3022 RMK FG8 SLP241
05:00
L
1 °C 1 mi 200 ft 360° 360° 3 kt METAR CYMX 031000Z 36003KT 340V060 1SM R24/P6000FT/D -RA BR VV002 01/01 A3023 RMK FG8 SLP243
04:00
L
1 °C 1 mi 300 ft 060° 060° 4 kt METAR CYMX 030900Z 06004KT 1SM R24/2800V3500FT/N -DZ BR VV003 01/00 A3021 RMK FG8 SLP236
03:00
L
1 °C ¾ mi 200 ft Var Var 2 kt METAR CYMX 030800Z VRB02KT 3/4SM R24/1800V2000FT/N BR VV002 01/01 A3020 RMK FG8 SLP233
02:00
L
1 °C 1 mi 300 ft 040° 040° 4 kt METAR CYMX 030700Z 04004KT 1SM R24/6000FT/D BR VV003 01/01 A3020 RMK FG8 SLP232
01:00
L
1 °C 2 mi 400 ft 050° 050° 4 kt METAR CYMX 030600Z 05004KT 010V080 2SM R24/4000VP6000FT/D BR OVC004 01/01 A3020 RMK ST8 SLP234
00:00
L
1 °C 1 mi 300 ft Var Var 2 kt METAR CYMX 030500Z VRB02KT 1SM R24/3500V5500FT/D -RA BR VV003 01/01 A3020 RMK FG8 VIS VRB 3/4-11/4 SLP234

2024年3月2日

时间 代码 天气 温度 能见度 天花板 METAR/SPECI
23:00
I
1 °C 1 mi 500 ft 040° 040° 3 kt METAR CYMX 030400Z 04003KT 1SM R24/6000FT/U -RA BR VV005 01/00 A3020 RMK FG8 SLP234
22:00
L
1 °C 1½ mi 300 ft 050° 050° 3 kt METAR CYMX 030300Z 05003KT 340V070 1 1/2SM -RA BR VV003 01/01 A3022 RMK FG8 SLP238
21:00
L
1 °C 1½ mi 200 ft 060° 060° 3 kt METAR CYMX 030200Z 06003KT 030V090 1 1/2SM R24/4500VP6000FT/U -RA BR VV002 01/00 A3022 RMK FG8 VIS VRB 1-2 SLP240
20:00
L
1 °C 1 mi 200 ft Var Var 2 kt METAR CYMX 030100Z VRB02KT 1SM R24/P6000FT/D -RA BR OVC002 01/00 A3021 RMK ST8 SLP238
19:00
L
1 °C 1 mi 300 ft 030° 030° 2 kt METAR CYMX 030000Z 03002KT 1SM R24/P6000FT/U -RA BR OVC003 01/00 A3021 RMK ST8 SLP238
18:00
L
1 °C 1 mi 300 ft 040° 040° 3 kt METAR CYMX 022300Z 04003KT 1SM R24/P6000FT/N -DZ BR OVC003 01/M00 A3022 RMK FG7ST1 VIS VRB 3/4-1 1/4 SLP241
17:00
L
1 °C 1 mi 300 ft 340° 340° 3 kt METAR CYMX 022200Z 34003KT 320V070 1SM R24/P6000FT/D -DZ BR OVC003 01/00 A3022 RMK FG7ST1 VIS VRB 3/4-1 1/4 SLP241
16:34
L
1 °C 1 mi 300 ft 060° 060° 3 kt METAR CYMX 022134Z 06003KT 1SM R24/5500V6000FT/N -DZ BR OVC003 01/M00 A3022 RMK FG7ST1 VIS VRB 3/4-1 1/4 SLP242
16:15
L
1 °C 1¼ mi 400 ft 060° 060° 3 kt METAR CYMX 022115Z 06003KT 1 1/4SM R24/5000V6000FT/N -DZ BR OVC004 01/M00 A3023 RMK FG4ST4 SLP243
16:00
I
1 °C 1¾ mi 500 ft 040° 040° 3 kt METAR CYMX 022100Z 04003KT 1 3/4SM -DZ BR OVC005 01/M00 A3023 RMK FG1ST7 SLP244
15:48
I
1 °C 2 mi 500 ft 050° 050° 3 kt METAR CYMX 022048Z 05003KT 020V090 2SM -DZ BR OVC005 01/M00 A3023 RMK FG1ST7 SLP244
15:23
I
1 °C 6 mi 600 ft 040° 040° 3 kt METAR CYMX 022023Z 04003KT 010V090 6SM -DZ BR OVC006 01/M01 A3023 RMK ST8 SLP245
15:00
I
1 °C 6 mi 700 ft Var Var 2 kt METAR CYMX 022000Z VRB02KT 6SM -RA BR BKN007 OVC012 01/M01 A3024 RMK SF7SC1 -RA INTMT SLP246
14:29
I
1 °C 8 mi 900 ft 360° 360° 0 kt METAR CYMX 021929Z 00000KT 8SM -RA BKN009 OVC013 01/M02 A3023 RMK SF7SC1 -RA INTMT SLP245
14:08
M
1 °C 8 mi 1.100 ft 040° 040° 2 kt METAR CYMX 021908Z 04002KT 8SM -RA BKN011 OVC015 01/M02 A3023 RMK SF6SC2 SLP244
14:00
M
1 °C 8 mi 1.500 ft Var Var 2 kt METAR CYMX 021900Z VRB02KT 8SM -RA SCT011 OVC015 01/M02 A3023 RMK SC4SC4 SLP245
13:00
M
0 °C 8 mi 2.200 ft Var Var 2 kt METAR CYMX 021800Z VRB02KT 8SM -RA FEW018 BKN022 OVC030 00/M03 A3025 RMK SC2SC5SC1 SLP250
12:00
M
0 °C 10 mi 2.500 ft Var Var 2 kt METAR CYMX 021700Z VRB02KT 10SM -RA BKN025 OVC032 00/M05 A3026 RMK SC7SC1 SLP255
11:50
M
0 °C 15 mi 2.300 ft Var Var 2 kt METAR CYMX 021650Z VRB02KT 15SM -FZRA OVC023 M00/M05 A3027 RMK SC8 SLP256
11:00
M
-1 °C 15 mi 2.800 ft 030° 030° 3 kt METAR CYMX 021600Z 03003KT 15SM BKN028 BKN050 OVC120 M01/M06 A3027 RMK SC6SC1AC1 SLP257
10:00
V
-2 °C 15 mi 12.000 ft 040° 040° 4 kt METAR CYMX 021500Z 04004KT 360V070 15SM FEW030 BKN120 M02/M07 A3028 RMK SC2AC5 SLP260
09:00
V
-4 °C 20 mi 17.000 ft 040° 040° 3 kt METAR CYMX 021400Z 04003KT 360V070 20SM SCT110 BKN170 M04/M08 A3029 RMK AC4AC3 SLP266
08:00
V
-6 °C 25 mi 17.000 ft 040° 040° 3 kt METAR CYMX 021300Z 04003KT 25SM BKN170 BKN240 M06/M09 A3030 RMK AC5CI2 SLP268
07:00
V
-9 °C 25 mi 24.000 ft 040° 040° 2 kt METAR CYMX 021200Z 04002KT 25SM SCT160 BKN240 M09/M10 A3029 RMK AC4CI2 SLP266
06:00
V
-9 °C 25 mi 25.000 ft 050° 050° 2 kt METAR CYMX 021100Z 05002KT 25SM FEW180 BKN250 M09/M10 A3030 RMK AC1CI4 SLP270
05:00
V
-9 °C 25 mi - 050° 050° 2 kt METAR CYMX 021000Z 05002KT 25SM SKC M09/M11 A3030 RMK SLP269
04:00
V
-8 °C 25 mi - 060° 060° 2 kt METAR CYMX 020900Z 06002KT 25SM SKC M08/M10 A3030 RMK SLP270
03:00
V
-8 °C 25 mi - 360° 360° 0 kt METAR CYMX 020800Z 00000KT 25SM FEW250 M08/M10 A3030 RMK CI1 SLP267
02:00
V
-8 °C 25 mi - 030° 030° 2 kt METAR CYMX 020700Z 03002KT 25SM SKC M08/M09 A3030 RMK SLP270
01:00
V
-7 °C 25 mi - 360° 360° 0 kt METAR CYMX 020600Z 00000KT 25SM SKC M07/M09 A3031 RMK SLP273